sensor_id;sensor_type;location;lat;lon;timestamp;temperature;humidity
23347;DHT22;36852;45.466;11.066;2024-03-08T03:22:36;9.30;99.90
23347;DHT22;36852;45.466;11.066;2024-03-08T03:28:43;9.30;99.90
23347;DHT22;36852;45.466;11.066;2024-03-08T03:31:36;9.30;99.90
23347;DHT22;36852;45.466;11.066;2024-03-08T03:34:30;9.30;99.90
23347;DHT22;36852;45.466;11.066;2024-03-08T08:43:58;9.40;99.90
23347;DHT22;36852;45.466;11.066;2024-03-08T08:46:32;9.40;99.90
23347;DHT22;36852;45.466;11.066;2024-03-08T08:49:24;9.50;99.90
23347;DHT22;36852;45.466;11.066;2024-03-08T08:51:54;9.40;99.90
23347;DHT22;36852;45.466;11.066;2024-03-08T08:54:37;9.50;99.90
23347;DHT22;36852;45.466;11.066;2024-03-08T08:57:41;9.60;99.90
23347;DHT22;36852;45.466;11.066;2024-03-08T09:05:47;10.10;99.90
23347;DHT22;36852;45.466;11.066;2024-03-08T09:11:24;10.40;99.90
23347;DHT22;36852;45.466;11.066;2024-03-08T09:16:57;10.50;99.90
23347;DHT22;36852;45.466;11.066;2024-03-08T09:19:32;10.80;99.90
23347;DHT22;36852;45.466;11.066;2024-03-08T09:22:00;11.10;99.90
23347;DHT22;36852;45.466;11.066;2024-03-08T09:24:30;12.00;99.90
23347;DHT22;36852;45.466;11.066;2024-03-08T09:26:59;13.30;99.90
23347;DHT22;36852;45.466;11.066;2024-03-08T09:35:25;13.30;99.90
23347;DHT22;36852;45.466;11.066;2024-03-08T09:38:03;13.00;99.90
23347;DHT22;36852;45.466;11.066;2024-03-08T09:46:21;12.90;99.90
23347;DHT22;36852;45.466;11.066;2024-03-08T09:51:43;13.00;99.90
23347;DHT22;36852;45.466;11.066;2024-03-08T09:54:30;13.00;99.90
23347;DHT22;36852;45.466;11.066;2024-03-08T09:57:06;12.70;99.90
23347;DHT22;36852;45.466;11.066;2024-03-08T09:59:36;12.40;99.90
23347;DHT22;36852;45.466;11.066;2024-03-08T10:02:15;12.10;99.90
23347;DHT22;36852;45.466;11.066;2024-03-08T10:04:44;11.90;99.90
23347;DHT22;36852;45.466;11.066;2024-03-08T10:07:32;11.60;99.90
23347;DHT22;36852;45.466;11.066;2024-03-08T10:10:08;11.50;99.90
23347;DHT22;36852;45.466;11.066;2024-03-08T10:13:04;11.40;99.90
23347;DHT22;36852;45.466;11.066;2024-03-08T10:15:56;11.20;99.90
23347;DHT22;36852;45.466;11.066;2024-03-08T10:18:51;11.20;99.90
23347;DHT22;36852;45.466;11.066;2024-03-08T10:21:32;11.10;99.90
23347;DHT22;36852;45.466;11.066;2024-03-08T10:24:22;11.10;99.90
23347;DHT22;36852;45.466;11.066;2024-03-08T10:27:19;11.20;99.90
23347;DHT22;36852;45.466;11.066;2024-03-08T10:30:16;11.20;99.90
23347;DHT22;36852;45.466;11.066;2024-03-08T10:32:57;11.20;99.90
23347;DHT22;36852;45.466;11.066;2024-03-08T10:35:58;11.10;99.90
23347;DHT22;36852;45.466;11.066;2024-03-08T10:39:40;11.10;99.90
23347;DHT22;36852;45.466;11.066;2024-03-08T10:42:12;11.10;99.90
23347;DHT22;36852;45.466;11.066;2024-03-08T10:45:41;11.10;99.90
23347;DHT22;36852;45.466;11.066;2024-03-08T10:48:52;11.00;99.90
23347;DHT22;36852;45.466;11.066;2024-03-08T10:51:45;10.90;99.90
23347;DHT22;36852;45.466;11.066;2024-03-08T10:54:43;11.00;99.90
23347;DHT22;36852;45.466;11.066;2024-03-08T10:57:50;11.00;99.90
23347;DHT22;36852;45.466;11.066;2024-03-08T11:00:42;11.00;99.90
23347;DHT22;36852;45.466;11.066;2024-03-08T11:03:55;11.00;99.90
23347;DHT22;36852;45.466;11.066;2024-03-08T11:06:46;10.90;99.90
23347;DHT22;36852;45.466;11.066;2024-03-08T11:09:52;11.00;99.90
23347;DHT22;36852;45.466;11.066;2024-03-08T11:12:42;11.20;99.90
23347;DHT22;36852;45.466;11.066;2024-03-08T11:15:25;11.20;99.90
23347;DHT22;36852;45.466;11.066;2024-03-08T11:18:21;11.30;99.90
23347;DHT22;36852;45.466;11.066;2024-03-08T11:21:08;11.20;99.90
23347;DHT22;36852;45.466;11.066;2024-03-08T11:27:03;11.20;99.90
23347;DHT22;36852;45.466;11.066;2024-03-08T11:30:02;11.10;99.90
23347;DHT22;36852;45.466;11.066;2024-03-08T11:32:52;11.10;99.90
23347;DHT22;36852;45.466;11.066;2024-03-08T11:35:44;10.80;99.90
23347;DHT22;36852;45.466;11.066;2024-03-08T11:38:42;10.70;99.90
23347;DHT22;36852;45.466;11.066;2024-03-08T11:41:24;10.70;99.90
23347;DHT22;36852;45.466;11.066;2024-03-08T11:44:12;10.50;99.90
23347;DHT22;36852;45.466;11.066;2024-03-08T11:53:06;10.70;99.90
23347;DHT22;36852;45.466;11.066;2024-03-08T11:56:09;10.80;99.90
23347;DHT22;36852;45.466;11.066;2024-03-08T11:58:55;11.10;99.90
23347;DHT22;36852;45.466;11.066;2024-03-08T12:02:03;11.30;99.90
23347;DHT22;36852;45.466;11.066;2024-03-08T12:04:58;11.60;99.90
23347;DHT22;36852;45.466;11.066;2024-03-08T12:07:59;11.80;99.90
23347;DHT22;36852;45.466;11.066;2024-03-08T12:10:53;11.90;99.90
23347;DHT22;36852;45.466;11.066;2024-03-08T12:13:47;11.80;99.90
23347;DHT22;36852;45.466;11.066;2024-03-08T12:16:31;11.70;99.90
23347;DHT22;36852;45.466;11.066;2024-03-08T12:19:20;11.60;99.90
23347;DHT22;36852;45.466;11.066;2024-03-08T12:22:26;11.50;99.90
23347;DHT22;36852;45.466;11.066;2024-03-08T12:25:09;11.50;99.90
23347;DHT22;36852;45.466;11.066;2024-03-08T12:28:08;11.70;99.90
23347;DHT22;36852;45.466;11.066;2024-03-08T12:30:58;11.80;99.90
23347;DHT22;36852;45.466;11.066;2024-03-08T12:33:54;11.80;99.90
23347;DHT22;36852;45.466;11.066;2024-03-08T12:36:50;11.70;99.90
23347;DHT22;36852;45.466;11.066;2024-03-08T12:39:44;11.50;99.90
23347;DHT22;36852;45.466;11.066;2024-03-08T12:42:42;11.40;99.90
23347;DHT22;36852;45.466;11.066;2024-03-08T12:45:36;11.40;99.90
23347;DHT22;36852;45.466;11.066;2024-03-08T12:48:25;11.30;99.90
23347;DHT22;36852;45.466;11.066;2024-03-08T12:51:21;11.40;99.90
23347;DHT22;36852;45.466;11.066;2024-03-08T13:35:36;11.80;99.90
23347;DHT22;36852;45.466;11.066;2024-03-08T13:50:15;11.30;99.90
23347;DHT22;36852;45.466;11.066;2024-03-08T13:53:05;11.20;99.90
23347;DHT22;36852;45.466;11.066;2024-03-08T14:01:18;11.30;99.90
23347;DHT22;36852;45.466;11.066;2024-03-08T14:04:22;11.20;99.90
23347;DHT22;36852;45.466;11.066;2024-03-08T14:07:16;11.20;99.90
23347;DHT22;36852;45.466;11.066;2024-03-08T14:10:10;11.20;99.90
23347;DHT22;36852;45.466;11.066;2024-03-08T14:13:07;11.20;99.90
23347;DHT22;36852;45.466;11.066;2024-03-08T14:15:58;11.20;99.90
23347;DHT22;36852;45.466;11.066;2024-03-08T14:30:33;10.80;99.90
23347;DHT22;36852;45.466;11.066;2024-03-08T14:33:32;10.70;99.90
23347;DHT22;36852;45.466;11.066;2024-03-08T14:36:22;10.60;99.90
23347;DHT22;36852;45.466;11.066;2024-03-08T14:39:14;10.60;99.90
23347;DHT22;36852;45.466;11.066;2024-03-08T14:42:10;10.60;99.90
23347;DHT22;36852;45.466;11.066;2024-03-08T14:45:00;10.70;99.90
23347;DHT22;36852;45.466;11.066;2024-03-08T14:47:40;10.70;99.90
23347;DHT22;36852;45.466;11.066;2024-03-08T14:50:27;10.60;99.90
23347;DHT22;36852;45.466;11.066;2024-03-08T14:53:03;10.60;99.90
23347;DHT22;36852;45.466;11.066;2024-03-08T15:24:58;10.60;99.90
23347;DHT22;36852;45.466;11.066;2024-03-08T15:27:49;10.60;99.90
23347;DHT22;36852;45.466;11.066;2024-03-08T15:30:44;10.40;99.90
23347;DHT22;36852;45.466;11.066;2024-03-08T15:33:53;10.40;99.90
23347;DHT22;36852;45.466;11.066;2024-03-08T15:36:45;10.40;99.90
23347;DHT22;36852;45.466;11.066;2024-03-08T15:39:27;10.30;99.90
23347;DHT22;36852;45.466;11.066;2024-03-08T15:42:17;10.20;99.90
23347;DHT22;36852;45.466;11.066;2024-03-08T15:45:01;10.20;99.90
23347;DHT22;36852;45.466;11.066;2024-03-08T15:47:43;10.10;99.90
23347;DHT22;36852;45.466;11.066;2024-03-08T15:50:22;10.10;99.90
23347;DHT22;36852;45.466;11.066;2024-03-08T15:53:08;10.10;99.90
23347;DHT22;36852;45.466;11.066;2024-03-08T15:55:44;10.00;99.90
23347;DHT22;36852;45.466;11.066;2024-03-08T15:58:25;9.90;99.90
23347;DHT22;36852;45.466;11.066;2024-03-08T16:09:57;9.80;99.90
23347;DHT22;36852;45.466;11.066;2024-03-08T16:12:26;9.80;99.90
23347;DHT22;36852;45.466;11.066;2024-03-08T16:14:55;9.80;99.90
23347;DHT22;36852;45.466;11.066;2024-03-08T16:17:37;9.80;99.90
23347;DHT22;36852;45.466;11.066;2024-03-08T16:20:15;9.80;99.90
23347;DHT22;36852;45.466;11.066;2024-03-08T16:22:50;9.80;99.90
23347;DHT22;36852;45.466;11.066;2024-03-08T16:25:28;9.70;99.90
23347;DHT22;36852;45.466;11.066;2024-03-08T16:28:16;9.80;99.90
23347;DHT22;36852;45.466;11.066;2024-03-08T16:31:05;9.80;99.90
23347;DHT22;36852;45.466;11.066;2024-03-08T16:33:48;9.80;99.90
23347;DHT22;36852;45.466;11.066;2024-03-08T16:36:36;9.80;99.90
23347;DHT22;36852;45.466;11.066;2024-03-08T16:39:29;9.80;99.90
23347;DHT22;36852;45.466;11.066;2024-03-08T16:42:23;9.80;99.90
23347;DHT22;36852;45.466;11.066;2024-03-08T17:25:55;9.40;99.90
23347;DHT22;36852;45.466;11.066;2024-03-08T17:28:44;9.40;99.90
23347;DHT22;36852;45.466;11.066;2024-03-08T17:31:39;9.40;99.90
23347;DHT22;36852;45.466;11.066;2024-03-08T17:34:41;9.40;99.90
23347;DHT22;36852;45.466;11.066;2024-03-08T17:37:53;9.40;99.90
23347;DHT22;36852;45.466;11.066;2024-03-08T17:41:07;9.40;99.90
23347;DHT22;36852;45.466;11.066;2024-03-08T17:44:21;9.40;99.90
23347;DHT22;36852;45.466;11.066;2024-03-08T17:47:03;9.40;99.90
23347;DHT22;36852;45.466;11.066;2024-03-08T17:49:58;9.40;99.90
23347;DHT22;36852;45.466;11.066;2024-03-08T17:52:53;9.50;99.90
23347;DHT22;36852;45.466;11.066;2024-03-08T17:55:42;9.50;99.90
23347;DHT22;36852;45.466;11.066;2024-03-08T17:58:33;9.50;99.90
23347;DHT22;36852;45.466;11.066;2024-03-08T18:01:24;9.50;99.90
23347;DHT22;36852;45.466;11.066;2024-03-08T18:03:57;9.50;99.90
23347;DHT22;36852;45.466;11.066;2024-03-08T18:06:52;9.50;99.90
23347;DHT22;36852;45.466;11.066;2024-03-08T18:09:40;9.50;99.90
23347;DHT22;36852;45.466;11.066;2024-03-08T18:12:39;9.60;99.90
23347;DHT22;36852;45.466;11.066;2024-03-08T18:15:27;9.50;99.90
23347;DHT22;36852;45.466;11.066;2024-03-08T18:18:24;9.60;99.90
23347;DHT22;36852;45.466;11.066;2024-03-08T18:21:15;9.50;99.90
23347;DHT22;36852;45.466;11.066;2024-03-08T18:24:07;9.50;99.90
23347;DHT22;36852;45.466;11.066;2024-03-08T18:27:14;9.50;99.90
23347;DHT22;36852;45.466;11.066;2024-03-08T18:30:25;9.50;99.90
23347;DHT22;36852;45.466;11.066;2024-03-08T18:33:39;9.50;99.90
23347;DHT22;36852;45.466;11.066;2024-03-08T18:36:36;9.50;99.90
23347;DHT22;36852;45.466;11.066;2024-03-08T18:39:30;9.50;99.90
23347;DHT22;36852;45.466;11.066;2024-03-08T18:42:26;9.50;99.90
23347;DHT22;36852;45.466;11.066;2024-03-08T18:45:22;9.50;99.90
23347;DHT22;36852;45.466;11.066;2024-03-08T18:48:17;9.50;99.90
23347;DHT22;36852;45.466;11.066;2024-03-08T18:51:08;9.50;99.90
23347;DHT22;36852;45.466;11.066;2024-03-08T18:53:40;9.50;99.90
23347;DHT22;36852;45.466;11.066;2024-03-08T18:56:37;9.60;99.90
23347;DHT22;36852;45.466;11.066;2024-03-08T18:59:29;9.50;99.90
23347;DHT22;36852;45.466;11.066;2024-03-08T19:02:08;9.50;99.90
23347;DHT22;36852;45.466;11.066;2024-03-08T19:05:07;9.50;99.90
23347;DHT22;36852;45.466;11.066;2024-03-08T19:08:25;9.60;99.90
23347;DHT22;36852;45.466;11.066;2024-03-08T19:15:10;9.60;99.90
23347;DHT22;36852;45.466;11.066;2024-03-08T19:18:30;9.60;99.90
23347;DHT22;36852;45.466;11.066;2024-03-08T19:21:22;9.60;99.90
23347;DHT22;36852;45.466;11.066;2024-03-08T19:24:17;9.60;99.90
23347;DHT22;36852;45.466;11.066;2024-03-08T19:27:11;9.60;99.90
23347;DHT22;36852;45.466;11.066;2024-03-08T19:30:09;9.60;99.90
23347;DHT22;36852;45.466;11.066;2024-03-08T19:33:12;9.60;99.90
23347;DHT22;36852;45.466;11.066;2024-03-08T19:36:08;9.70;99.90
23347;DHT22;36852;45.466;11.066;2024-03-08T19:38:58;9.70;99.90
23347;DHT22;36852;45.466;11.066;2024-03-08T19:41:53;9.70;99.90
23347;DHT22;36852;45.466;11.066;2024-03-08T19:44:44;9.70;99.90
23347;DHT22;36852;45.466;11.066;2024-03-08T19:47:16;9.80;99.90
23347;DHT22;36852;45.466;11.066;2024-03-08T19:49:50;9.80;99.90
23347;DHT22;36852;45.466;11.066;2024-03-08T19:52:48;9.80;99.90
23347;DHT22;36852;45.466;11.066;2024-03-08T19:55:41;9.80;99.90
23347;DHT22;36852;45.466;11.066;2024-03-08T19:58:33;9.80;99.90
23347;DHT22;36852;45.466;11.066;2024-03-08T20:01:27;9.80;99.90
23347;DHT22;36852;45.466;11.066;2024-03-08T20:04:26;9.90;99.90
23347;DHT22;36852;45.466;11.066;2024-03-08T20:07:24;9.90;99.90
23347;DHT22;36852;45.466;11.066;2024-03-08T20:10:19;10.00;99.90
23347;DHT22;36852;45.466;11.066;2024-03-08T20:12:58;10.00;99.90
23347;DHT22;36852;45.466;11.066;2024-03-08T20:15:47;10.00;99.90
23347;DHT22;36852;45.466;11.066;2024-03-08T20:18:39;9.90;99.90
23347;DHT22;36852;45.466;11.066;2024-03-08T20:21:29;9.90;99.90
23347;DHT22;36852;45.466;11.066;2024-03-08T20:24:24;9.90;99.90
23347;DHT22;36852;45.466;11.066;2024-03-08T20:27:26;9.80;99.90
23347;DHT22;36852;45.466;11.066;2024-03-08T20:30:14;9.70;99.90
23347;DHT22;36852;45.466;11.066;2024-03-08T20:33:28;9.70;99.90
23347;DHT22;36852;45.466;11.066;2024-03-08T20:39:37;9.50;99.90
23347;DHT22;36852;45.466;11.066;2024-03-08T20:42:39;9.40;99.90
23347;DHT22;36852;45.466;11.066;2024-03-08T20:49:08;9.20;99.90
23347;DHT22;36852;45.466;11.066;2024-03-08T20:55:07;9.10;99.90
23347;DHT22;36852;45.466;11.066;2024-03-08T20:58:34;9.00;99.90
23347;DHT22;36852;45.466;11.066;2024-03-08T22:58:21;9.30;99.90
23347;DHT22;36852;45.466;11.066;2024-03-08T23:01:22;9.30;99.90
23347;DHT22;36852;45.466;11.066;2024-03-08T23:04:30;9.30;99.90
23347;DHT22;36852;45.466;11.066;2024-03-08T23:07:37;9.30;99.90
23347;DHT22;36852;45.466;11.066;2024-03-08T23:10:32;9.40;99.90
23347;DHT22;36852;45.466;11.066;2024-03-08T23:13:24;9.40;99.90
23347;DHT22;36852;45.466;11.066;2024-03-08T23:16:01;9.50;99.90
23347;DHT22;36852;45.466;11.066;2024-03-08T23:18:51;9.50;99.90
23347;DHT22;36852;45.466;11.066;2024-03-08T23:21:40;9.50;99.90
23347;DHT22;36852;45.466;11.066;2024-03-08T23:27:14;9.50;99.90
23347;DHT22;36852;45.466;11.066;2024-03-08T23:30:19;9.50;99.90
23347;DHT22;36852;45.466;11.066;2024-03-08T23:33:12;9.50;99.90
23347;DHT22;36852;45.466;11.066;2024-03-08T23:35:53;9.50;99.90
23347;DHT22;36852;45.466;11.066;2024-03-08T23:38:50;9.40;99.90
23347;DHT22;36852;45.466;11.066;2024-03-08T23:41:49;9.30;99.90
23347;DHT22;36852;45.466;11.066;2024-03-08T23:44:39;9.40;99.90
23347;DHT22;36852;45.466;11.066;2024-03-08T23:47:53;9.40;99.90
23347;DHT22;36852;45.466;11.066;2024-03-08T23:50:49;9.20;99.90
23347;DHT22;36852;45.466;11.066;2024-03-08T23:53:41;9.10;99.90
23347;DHT22;36852;45.466;11.066;2024-03-08T23:56:30;9.00;99.90
23347;DHT22;36852;45.466;11.066;2024-03-08T23:59:07;8.90;99.90
